sensor_id;sensor_type;location;lat;lon;timestamp;pressure;altitude;pressure_sealevel;temperature;humidity
24422;BME280;12600;53.326;-6.298;2023-04-30T00:00:08;101413.59;;;16.70;83.56
24422;BME280;12600;53.326;-6.298;2023-04-30T00:02:58;101416.47;;;16.74;83.22
24422;BME280;12600;53.326;-6.298;2023-04-30T00:05:49;101420.25;;;16.69;83.34
24422;BME280;12600;53.326;-6.298;2023-04-30T00:08:40;101425.44;;;16.62;83.46
24422;BME280;12600;53.326;-6.298;2023-04-30T00:11:30;101421.88;;;16.62;83.71
24422;BME280;12600;53.326;-6.298;2023-04-30T00:14:19;101414.41;;;16.62;83.80
24422;BME280;12600;53.326;-6.298;2023-04-30T00:17:09;101421.06;;;16.61;83.73
24422;BME280;12600;53.326;-6.298;2023-04-30T00:19:58;101417.16;;;16.62;83.84
24422;BME280;12600;53.326;-6.298;2023-04-30T00:22:48;101411.66;;;16.62;83.56
24422;BME280;12600;53.326;-6.298;2023-04-30T00:25:38;101407.78;;;16.55;83.59
24422;BME280;12600;53.326;-6.298;2023-04-30T00:28:28;101413.94;;;16.51;83.45
24422;BME280;12600;53.326;-6.298;2023-04-30T00:31:17;101408.28;;;16.48;83.56
24422;BME280;12600;53.326;-6.298;2023-04-30T00:34:06;101408.47;;;16.43;83.78
24422;BME280;12600;53.326;-6.298;2023-04-30T00:36:55;101411.44;;;16.38;83.49
24422;BME280;12600;53.326;-6.298;2023-04-30T00:39:45;101410.44;;;16.34;83.29
24422;BME280;12600;53.326;-6.298;2023-04-30T00:42:35;101411.63;;;16.24;83.35
24422;BME280;12600;53.326;-6.298;2023-04-30T00:45:25;101405.34;;;16.06;82.93
24422;BME280;12600;53.326;-6.298;2023-04-30T00:48:15;101396.94;;;15.94;83.41
24422;BME280;12600;53.326;-6.298;2023-04-30T00:51:05;101409.25;;;15.88;83.33
24422;BME280;12600;53.326;-6.298;2023-04-30T00:53:54;101408.78;;;15.77;83.28
24422;BME280;12600;53.326;-6.298;2023-04-30T00:56:44;101404.91;;;15.61;83.50
24422;BME280;12600;53.326;-6.298;2023-04-30T00:59:35;101402.44;;;15.59;83.51
24422;BME280;12600;53.326;-6.298;2023-04-30T01:02:25;101406.81;;;15.52;83.80
24422;BME280;12600;53.326;-6.298;2023-04-30T01:05:14;101402.47;;;15.42;83.68
24422;BME280;12600;53.326;-6.298;2023-04-30T01:08:04;101397.44;;;15.35;84.01
24422;BME280;12600;53.326;-6.298;2023-04-30T01:10:59;101399.50;;;15.30;84.71
24422;BME280;12600;53.326;-6.298;2023-04-30T01:14:03;101388.50;;;15.30;84.41
24422;BME280;12600;53.326;-6.298;2023-04-30T01:17:05;101391.91;;;15.27;84.58
24422;BME280;12600;53.326;-6.298;2023-04-30T01:19:57;101389.78;;;15.15;84.55
24422;BME280;12600;53.326;-6.298;2023-04-30T01:22:54;101390.13;;;15.22;85.03
24422;BME280;12600;53.326;-6.298;2023-04-30T01:25:52;101396.13;;;15.24;85.37
24422;BME280;12600;53.326;-6.298;2023-04-30T01:28:50;101384.63;;;15.22;84.91
24422;BME280;12600;53.326;-6.298;2023-04-30T01:31:43;101377.00;;;15.19;84.85
24422;BME280;12600;53.326;-6.298;2023-04-30T01:34:33;101384.78;;;15.17;85.19
24422;BME280;12600;53.326;-6.298;2023-04-30T01:37:32;101376.34;;;15.14;85.58
24422;BME280;12600;53.326;-6.298;2023-04-30T01:40:34;101364.19;;;15.06;85.42
24422;BME280;12600;53.326;-6.298;2023-04-30T01:43:38;101374.72;;;15.04;85.94
24422;BME280;12600;53.326;-6.298;2023-04-30T01:46:30;101368.41;;;15.03;85.80
24422;BME280;12600;53.326;-6.298;2023-04-30T01:49:29;101370.03;;;15.04;86.11
24422;BME280;12600;53.326;-6.298;2023-04-30T01:52:29;101350.44;;;14.97;86.05
24422;BME280;12600;53.326;-6.298;2023-04-30T01:55:27;101351.09;;;15.03;86.29
24422;BME280;12600;53.326;-6.298;2023-04-30T01:58:20;101340.56;;;14.96;86.19
24422;BME280;12600;53.326;-6.298;2023-04-30T02:01:26;101351.75;;;15.08;86.35
24422;BME280;12600;53.326;-6.298;2023-04-30T02:04:17;101353.38;;;15.09;86.46
24422;BME280;12600;53.326;-6.298;2023-04-30T02:07:06;101346.88;;;14.97;86.54
24422;BME280;12600;53.326;-6.298;2023-04-30T02:09:56;101349.59;;;14.88;86.83
24422;BME280;12600;53.326;-6.298;2023-04-30T02:12:45;101339.25;;;14.76;86.94
24422;BME280;12600;53.326;-6.298;2023-04-30T02:15:34;101347.50;;;14.76;86.95
24422;BME280;12600;53.326;-6.298;2023-04-30T02:18:24;101350.38;;;14.71;87.04
24422;BME280;12600;53.326;-6.298;2023-04-30T02:21:15;101338.72;;;14.66;87.01
24422;BME280;12600;53.326;-6.298;2023-04-30T02:24:06;101342.59;;;14.65;87.26
24422;BME280;12600;53.326;-6.298;2023-04-30T02:26:55;101335.97;;;14.66;87.53
24422;BME280;12600;53.326;-6.298;2023-04-30T02:29:44;101340.97;;;14.64;87.29
24422;BME280;12600;53.326;-6.298;2023-04-30T02:32:34;101340.31;;;14.58;87.29
24422;BME280;12600;53.326;-6.298;2023-04-30T02:35:23;101336.25;;;14.55;87.59
24422;BME280;12600;53.326;-6.298;2023-04-30T02:38:14;101327.66;;;14.48;88.35
24422;BME280;12600;53.326;-6.298;2023-04-30T02:41:03;101319.53;;;14.43;88.04
24422;BME280;12600;53.326;-6.298;2023-04-30T02:43:52;101325.50;;;14.37;88.62
24422;BME280;12600;53.326;-6.298;2023-04-30T02:46:42;101314.97;;;14.30;88.92
24422;BME280;12600;53.326;-6.298;2023-04-30T02:49:31;101316.09;;;14.29;89.55
24422;BME280;12600;53.326;-6.298;2023-04-30T02:52:20;101314.78;;;14.26;89.38
24422;BME280;12600;53.326;-6.298;2023-04-30T02:55:11;101318.34;;;14.27;89.58
24422;BME280;12600;53.326;-6.298;2023-04-30T02:58:00;101315.09;;;14.25;89.79
24422;BME280;12600;53.326;-6.298;2023-04-30T03:00:50;101307.66;;;14.25;89.71
24422;BME280;12600;53.326;-6.298;2023-04-30T03:03:39;101308.47;;;14.26;89.53
24422;BME280;12600;53.326;-6.298;2023-04-30T03:06:28;101316.59;;;14.31;89.84
24422;BME280;12600;53.326;-6.298;2023-04-30T03:09:18;101307.53;;;14.31;90.17
24422;BME280;12600;53.326;-6.298;2023-04-30T03:12:09;101314.16;;;14.30;90.23
24422;BME280;12600;53.326;-6.298;2023-04-30T03:14:58;101308.81;;;14.33;90.34
24422;BME280;12600;53.326;-6.298;2023-04-30T03:17:47;101313.69;;;14.36;90.08
24422;BME280;12600;53.326;-6.298;2023-04-30T03:20:36;101312.72;;;14.41;90.63
24422;BME280;12600;53.326;-6.298;2023-04-30T03:23:27;101312.09;;;14.44;90.18
24422;BME280;12600;53.326;-6.298;2023-04-30T03:26:16;101315.22;;;14.51;90.42
24422;BME280;12600;53.326;-6.298;2023-04-30T03:29:07;101314.25;;;14.55;90.57
24422;BME280;12600;53.326;-6.298;2023-04-30T03:31:56;101307.81;;;14.60;90.57
24422;BME280;12600;53.326;-6.298;2023-04-30T03:34:46;101308.63;;;14.61;90.44
24422;BME280;12600;53.326;-6.298;2023-04-30T03:37:35;101306.97;;;14.60;89.95
24422;BME280;12600;53.326;-6.298;2023-04-30T03:40:24;101303.25;;;14.55;90.03
24422;BME280;12600;53.326;-6.298;2023-04-30T03:43:14;101304.22;;;14.60;90.56
24422;BME280;12600;53.326;-6.298;2023-04-30T03:46:04;101305.88;;;14.61;90.48
24422;BME280;12600;53.326;-6.298;2023-04-30T03:48:54;101303.59;;;14.63;90.44
24422;BME280;12600;53.326;-6.298;2023-04-30T03:51:43;101284.34;;;14.63;90.80
24422;BME280;12600;53.326;-6.298;2023-04-30T03:54:32;101292.13;;;14.69;90.81
24422;BME280;12600;53.326;-6.298;2023-04-30T03:57:22;101296.50;;;14.70;90.36
24422;BME280;12600;53.326;-6.298;2023-04-30T04:00:12;101283.88;;;14.69;90.71
24422;BME280;12600;53.326;-6.298;2023-04-30T04:03:09;101285.66;;;14.74;91.00
24422;BME280;12600;53.326;-6.298;2023-04-30T04:06:00;101288.72;;;14.72;90.93
24422;BME280;12600;53.326;-6.298;2023-04-30T04:08:50;101292.28;;;14.73;90.71
24422;BME280;12600;53.326;-6.298;2023-04-30T04:11:39;101297.16;;;14.76;90.98
24422;BME280;12600;53.326;-6.298;2023-04-30T04:14:28;101292.16;;;14.78;91.05
24422;BME280;12600;53.326;-6.298;2023-04-30T04:17:18;101297.00;;;14.81;91.22
24422;BME280;12600;53.326;-6.298;2023-04-30T04:20:10;101289.56;;;14.81;90.89
24422;BME280;12600;53.326;-6.298;2023-04-30T04:23:01;101286.47;;;14.83;90.60
24422;BME280;12600;53.326;-6.298;2023-04-30T04:25:51;101277.59;;;14.77;90.93
24422;BME280;12600;53.326;-6.298;2023-04-30T04:28:41;101276.78;;;14.86;90.90
24422;BME280;12600;53.326;-6.298;2023-04-30T04:31:31;101278.41;;;14.87;91.25
24422;BME280;12600;53.326;-6.298;2023-04-30T04:34:21;101278.88;;;14.89;91.38
24422;BME280;12600;53.326;-6.298;2023-04-30T04:37:13;101281.16;;;14.87;90.73
24422;BME280;12600;53.326;-6.298;2023-04-30T04:40:03;101284.06;;;14.90;91.31
24422;BME280;12600;53.326;-6.298;2023-04-30T04:42:53;101286.97;;;14.94;91.50
24422;BME280;12600;53.326;-6.298;2023-04-30T04:45:42;101273.56;;;14.92;91.37
24422;BME280;12600;53.326;-6.298;2023-04-30T04:48:31;101216.88;;;14.65;91.38
24422;BME280;12600;53.326;-6.298;2023-04-30T04:51:21;101269.00;;;14.96;91.37
24422;BME280;12600;53.326;-6.298;2023-04-30T04:54:12;101274.38;;;15.01;91.31
24422;BME280;12600;53.326;-6.298;2023-04-30T04:57:01;101278.41;;;15.04;91.24
24422;BME280;12600;53.326;-6.298;2023-04-30T04:59:51;101274.84;;;15.03;91.04
24422;BME280;12600;53.326;-6.298;2023-04-30T05:02:40;101275.97;;;15.02;91.07
24422;BME280;12600;53.326;-6.298;2023-04-30T05:05:30;101270.81;;;15.01;91.16
24422;BME280;12600;53.326;-6.298;2023-04-30T05:08:19;101274.19;;;14.98;90.60
24422;BME280;12600;53.326;-6.298;2023-04-30T05:11:10;101267.88;;;14.97;90.83
24422;BME280;12600;53.326;-6.298;2023-04-30T05:14:02;101270.16;;;14.95;91.00
24422;BME280;12600;53.326;-6.298;2023-04-30T05:16:51;101267.41;;;14.95;91.40
24422;BME280;12600;53.326;-6.298;2023-04-30T05:19:41;101270.63;;;14.89;90.61
24422;BME280;12600;53.326;-6.298;2023-04-30T05:22:30;101272.09;;;14.86;90.46
24422;BME280;12600;53.326;-6.298;2023-04-30T05:25:20;101266.59;;;14.77;90.14
24422;BME280;12600;53.326;-6.298;2023-04-30T05:28:11;101273.22;;;14.68;90.22
24422;BME280;12600;53.326;-6.298;2023-04-30T05:31:00;101271.41;;;14.63;90.54
24422;BME280;12600;53.326;-6.298;2023-04-30T05:33:49;101263.78;;;14.51;89.93
24422;BME280;12600;53.326;-6.298;2023-04-30T05:36:39;101271.88;;;14.57;90.56
24422;BME280;12600;53.326;-6.298;2023-04-30T05:39:31;101259.75;;;14.58;90.79
24422;BME280;12600;53.326;-6.298;2023-04-30T05:42:20;101271.22;;;14.60;90.46
24422;BME280;12600;53.326;-6.298;2023-04-30T05:45:11;101265.56;;;14.56;90.60
24422;BME280;12600;53.326;-6.298;2023-04-30T05:48:04;101271.22;;;14.60;90.21
24422;BME280;12600;53.326;-6.298;2023-04-30T05:50:54;101273.97;;;14.60;90.15
24422;BME280;12600;53.326;-6.298;2023-04-30T05:53:43;101270.94;;;14.61;90.46
24422;BME280;12600;53.326;-6.298;2023-04-30T05:56:32;101282.75;;;14.62;90.46
24422;BME280;12600;53.326;-6.298;2023-04-30T05:59:21;101280.00;;;14.62;90.62
24422;BME280;12600;53.326;-6.298;2023-04-30T06:02:12;101273.97;;;14.60;90.39
24422;BME280;12600;53.326;-6.298;2023-04-30T06:05:01;101274.66;;;14.65;90.36
24422;BME280;12600;53.326;-6.298;2023-04-30T06:07:51;101276.09;;;14.63;90.72
24422;BME280;12600;53.326;-6.298;2023-04-30T06:10:40;101271.09;;;14.65;90.37
24422;BME280;12600;53.326;-6.298;2023-04-30T06:13:31;101287.25;;;14.66;90.38
24422;BME280;12600;53.326;-6.298;2023-04-30T06:16:20;101277.56;;;14.69;90.43
24422;BME280;12600;53.326;-6.298;2023-04-30T06:19:11;101269.13;;;14.65;90.29
24422;BME280;12600;53.326;-6.298;2023-04-30T06:22:00;101276.28;;;14.75;91.10
24422;BME280;12600;53.326;-6.298;2023-04-30T06:24:49;101279.34;;;14.73;90.62
24422;BME280;12600;53.326;-6.298;2023-04-30T06:27:39;101287.28;;;14.75;90.49
24422;BME280;12600;53.326;-6.298;2023-04-30T06:30:30;101285.66;;;14.74;90.75
24422;BME280;12600;53.326;-6.298;2023-04-30T06:33:19;101284.69;;;14.78;90.72
24422;BME280;12600;53.326;-6.298;2023-04-30T06:36:10;101296.66;;;14.74;90.44
24422;BME280;12600;53.326;-6.298;2023-04-30T06:38:59;101293.75;;;14.79;90.49
24422;BME280;12600;53.326;-6.298;2023-04-30T06:41:50;101292.31;;;14.81;90.46
24422;BME280;12600;53.326;-6.298;2023-04-30T06:44:41;101295.38;;;14.80;89.78
24422;BME280;12600;53.326;-6.298;2023-04-30T06:47:31;101294.56;;;14.79;89.82
24422;BME280;12600;53.326;-6.298;2023-04-30T06:50:21;101303.31;;;14.81;90.02
24422;BME280;12600;53.326;-6.298;2023-04-30T06:53:12;101289.06;;;14.79;90.09
24422;BME280;12600;53.326;-6.298;2023-04-30T06:56:01;101297.81;;;14.90;90.34
24422;BME280;12600;53.326;-6.298;2023-04-30T06:58:54;101300.41;;;14.95;90.12
24422;BME280;12600;53.326;-6.298;2023-04-30T07:01:44;101291.19;;;15.08;91.04
24422;BME280;12600;53.326;-6.298;2023-04-30T07:04:34;101299.94;;;15.19;90.84
24422;BME280;12600;53.326;-6.298;2023-04-30T07:07:23;101300.06;;;15.31;90.54
24422;BME280;12600;53.326;-6.298;2023-04-30T07:10:14;101303.47;;;15.46;90.27
24422;BME280;12600;53.326;-6.298;2023-04-30T07:13:04;101294.06;;;15.55;89.74
24422;BME280;12600;53.326;-6.298;2023-04-30T07:15:54;101296.81;;;15.55;89.55
24422;BME280;12600;53.326;-6.298;2023-04-30T07:18:43;101296.16;;;15.58;89.48
24422;BME280;12600;53.326;-6.298;2023-04-30T07:21:35;101297.31;;;15.57;89.12
24422;BME280;12600;53.326;-6.298;2023-04-30T07:24:24;101298.13;;;15.58;88.65
24422;BME280;12600;53.326;-6.298;2023-04-30T07:27:15;101310.44;;;15.43;87.44
24422;BME280;12600;53.326;-6.298;2023-04-30T07:30:06;101296.34;;;15.45;88.05
24422;BME280;12600;53.326;-6.298;2023-04-30T07:32:57;101293.75;;;15.57;88.42
24422;BME280;12600;53.326;-6.298;2023-04-30T07:35:46;101304.09;;;15.77;88.82
24422;BME280;12600;53.326;-6.298;2023-04-30T07:38:35;101300.13;;;15.95;89.21
24422;BME280;12600;53.326;-6.298;2023-04-30T07:41:25;101315.16;;;16.15;89.59
24422;BME280;12600;53.326;-6.298;2023-04-30T07:44:16;101314.41;;;16.36;89.19
24422;BME280;12600;53.326;-6.298;2023-04-30T07:47:06;101304.19;;;16.36;88.55
24422;BME280;12600;53.326;-6.298;2023-04-30T07:49:56;101307.56;;;16.42;87.44
24422;BME280;12600;53.326;-6.298;2023-04-30T07:52:48;101319.28;;;16.39;87.37
24422;BME280;12600;53.326;-6.298;2023-04-30T07:55:37;101322.03;;;16.39;87.44
24422;BME280;12600;53.326;-6.298;2023-04-30T07:58:27;101318.16;;;16.31;86.90
24422;BME280;12600;53.326;-6.298;2023-04-30T08:01:17;101320.75;;;16.28;86.68
24422;BME280;12600;53.326;-6.298;2023-04-30T08:04:07;101321.56;;;16.28;87.56
24422;BME280;12600;53.326;-6.298;2023-04-30T08:06:56;101312.06;;;16.17;86.40
24422;BME280;12600;53.326;-6.298;2023-04-30T08:09:45;101319.66;;;16.20;85.91
24422;BME280;12600;53.326;-6.298;2023-04-30T08:12:35;101317.25;;;16.18;85.16
24422;BME280;12600;53.326;-6.298;2023-04-30T08:15:25;101311.69;;;16.27;85.06
24422;BME280;12600;53.326;-6.298;2023-04-30T08:18:18;101319.28;;;16.39;85.24
24422;BME280;12600;53.326;-6.298;2023-04-30T08:21:07;101320.06;;;16.39;84.76
24422;BME280;12600;53.326;-6.298;2023-04-30T08:23:57;101328.84;;;16.33;83.09
24422;BME280;12600;53.326;-6.298;2023-04-30T08:26:46;101321.41;;;16.33;83.44
24422;BME280;12600;53.326;-6.298;2023-04-30T08:29:36;101322.06;;;16.30;82.71
24422;BME280;12600;53.326;-6.298;2023-04-30T08:32:25;101325.81;;;16.26;82.50
24422;BME280;12600;53.326;-6.298;2023-04-30T08:35:17;101320.41;;;16.38;81.71
24422;BME280;12600;53.326;-6.298;2023-04-30T08:38:07;101323.38;;;16.62;82.77
24422;BME280;12600;53.326;-6.298;2023-04-30T08:41:06;101326.50;;;16.82;81.69
24422;BME280;12600;53.326;-6.298;2023-04-30T08:44:00;101334.72;;;16.69;77.90
24422;BME280;12600;53.326;-6.298;2023-04-30T08:46:55;101329.94;;;16.78;78.44
24422;BME280;12600;53.326;-6.298;2023-04-30T08:49:45;101331.22;;;16.81;78.63
24422;BME280;12600;53.326;-6.298;2023-04-30T08:52:36;101321.16;;;16.85;77.80
24422;BME280;12600;53.326;-6.298;2023-04-30T08:55:27;101315.53;;;17.15;79.65
24422;BME280;12600;53.326;-6.298;2023-04-30T08:58:16;101324.09;;;17.43;78.09
24422;BME280;12600;53.326;-6.298;2023-04-30T09:01:07;101325.28;;;17.75;78.93
24422;BME280;12600;53.326;-6.298;2023-04-30T09:03:57;101306.63;;;17.84;75.68
24422;BME280;12600;53.326;-6.298;2023-04-30T09:06:46;101305.16;;;18.11;73.89
24422;BME280;12600;53.326;-6.298;2023-04-30T09:09:38;101319.59;;;18.41;72.40
24422;BME280;12600;53.326;-6.298;2023-04-30T09:12:28;101308.53;;;18.65;71.50
24422;BME280;12600;53.326;-6.298;2023-04-30T09:15:17;101308.81;;;19.00;69.56
24422;BME280;12600;53.326;-6.298;2023-04-30T09:18:09;101308.69;;;19.37;69.06
24422;BME280;12600;53.326;-6.298;2023-04-30T09:21:00;101309.38;;;19.74;66.89
24422;BME280;12600;53.326;-6.298;2023-04-30T09:23:57;101297.84;;;20.20;66.96
24422;BME280;12600;53.326;-6.298;2023-04-30T09:26:49;101306.47;;;20.46;64.37
24422;BME280;12600;53.326;-6.298;2023-04-30T09:29:39;101315.59;;;20.82;64.60
24422;BME280;12600;53.326;-6.298;2023-04-30T09:32:28;101322.22;;;21.12;62.69
24422;BME280;12600;53.326;-6.298;2023-04-30T09:35:28;101314.72;;;21.32;60.49
24422;BME280;12600;53.326;-6.298;2023-04-30T09:38:26;101310.09;;;21.59;59.80
24422;BME280;12600;53.326;-6.298;2023-04-30T09:41:23;101315.75;;;21.43;57.20
24422;BME280;12600;53.326;-6.298;2023-04-30T09:44:27;101314.34;;;21.53;55.87
24422;BME280;12600;53.326;-6.298;2023-04-30T09:47:19;101314.50;;;21.83;56.05
24422;BME280;12600;53.326;-6.298;2023-04-30T09:50:13;101330.50;;;22.09;55.75
24422;BME280;12600;53.326;-6.298;2023-04-30T09:53:05;101333.78;;;22.15;54.90
24422;BME280;12600;53.326;-6.298;2023-04-30T09:55:57;101318.88;;;22.26;55.18
24422;BME280;12600;53.326;-6.298;2023-04-30T09:58:51;101319.41;;;21.90;52.51
24422;BME280;12600;53.326;-6.298;2023-04-30T10:01:42;101320.56;;;21.66;53.71
24422;BME280;12600;53.326;-6.298;2023-04-30T10:04:35;101325.59;;;21.60;53.02
24422;BME280;12600;53.326;-6.298;2023-04-30T10:07:33;101320.28;;;21.52;53.59
24422;BME280;12600;53.326;-6.298;2023-04-30T10:10:25;101331.44;;;21.74;52.85
24422;BME280;12600;53.326;-6.298;2023-04-30T10:13:19;101339.56;;;22.06;51.71
24422;BME280;12600;53.326;-6.298;2023-04-30T10:16:17;101341.38;;;22.41;52.06
24422;BME280;12600;53.326;-6.298;2023-04-30T10:19:17;101343.16;;;22.29;51.06
24422;BME280;12600;53.326;-6.298;2023-04-30T10:22:07;101338.31;;;22.03;52.34
24422;BME280;12600;53.326;-6.298;2023-04-30T10:24:57;101332.78;;;21.61;53.28
24422;BME280;12600;53.326;-6.298;2023-04-30T10:27:48;101345.22;;;21.48;53.44
24422;BME280;12600;53.326;-6.298;2023-04-30T10:30:37;101335.75;;;21.14;52.94
24422;BME280;12600;53.326;-6.298;2023-04-30T10:33:36;101337.00;;;20.81;53.91
24422;BME280;12600;53.326;-6.298;2023-04-30T10:36:41;101339.81;;;20.65;54.45
24422;BME280;12600;53.326;-6.298;2023-04-30T10:39:32;101344.09;;;20.79;54.82
24422;BME280;12600;53.326;-6.298;2023-04-30T10:42:22;101333.34;;;20.77;54.96
24422;BME280;12600;53.326;-6.298;2023-04-30T10:45:12;101343.13;;;20.71;54.61
24422;BME280;12600;53.326;-6.298;2023-04-30T10:48:04;101326.97;;;20.77;54.36
24422;BME280;12600;53.326;-6.298;2023-04-30T10:50:56;101321.13;;;20.62;54.68
24422;BME280;12600;53.326;-6.298;2023-04-30T10:53:49;101328.72;;;20.50;53.90
24422;BME280;12600;53.326;-6.298;2023-04-30T10:56:38;101324.34;;;20.49;54.60
24422;BME280;12600;53.326;-6.298;2023-04-30T10:59:28;101274.13;;;20.06;55.00
24422;BME280;12600;53.326;-6.298;2023-04-30T11:02:17;101319.88;;;20.44;55.44
24422;BME280;12600;53.326;-6.298;2023-04-30T11:05:12;101296.75;;;20.40;55.06
24422;BME280;12600;53.326;-6.298;2023-04-30T11:08:02;101303.56;;;20.58;54.91
24422;BME280;12600;53.326;-6.298;2023-04-30T11:11:00;101295.03;;;20.67;54.86
24422;BME280;12600;53.326;-6.298;2023-04-30T11:13:59;101297.50;;;21.27;54.10
24422;BME280;12600;53.326;-6.298;2023-04-30T11:16:51;101303.16;;;21.92;52.46
24422;BME280;12600;53.326;-6.298;2023-04-30T11:19:46;101293.50;;;22.58;51.07
24422;BME280;12600;53.326;-6.298;2023-04-30T11:22:38;101292.50;;;23.30;48.93
24422;BME280;12600;53.326;-6.298;2023-04-30T11:25:40;101290.94;;;24.10;48.12
24422;BME280;12600;53.326;-6.298;2023-04-30T11:28:32;101302.63;;;24.74;46.38
24422;BME280;12600;53.326;-6.298;2023-04-30T11:31:32;101277.34;;;25.40;43.87
24422;BME280;12600;53.326;-6.298;2023-04-30T11:34:23;101286.66;;;25.73;44.35
24422;BME280;12600;53.326;-6.298;2023-04-30T11:37:20;101291.81;;;25.71;42.97
24422;BME280;12600;53.326;-6.298;2023-04-30T11:40:12;101269.44;;;25.71;41.89
24422;BME280;12600;53.326;-6.298;2023-04-30T11:43:01;101264.19;;;25.48;41.93
24422;BME280;12600;53.326;-6.298;2023-04-30T11:46:06;101272.84;;;25.03;41.77
24422;BME280;12600;53.326;-6.298;2023-04-30T11:48:57;101272.25;;;24.18;42.64
24422;BME280;12600;53.326;-6.298;2023-04-30T11:51:48;101282.22;;;23.71;45.19
24422;BME280;12600;53.326;-6.298;2023-04-30T11:54:38;101290.66;;;22.81;49.74
24422;BME280;12600;53.326;-6.298;2023-04-30T11:57:38;101278.34;;;22.06;52.61
24422;BME280;12600;53.326;-6.298;2023-04-30T12:00:29;101275.94;;;21.20;54.21
24422;BME280;12600;53.326;-6.298;2023-04-30T12:03:21;101275.13;;;20.46;56.70
24422;BME280;12600;53.326;-6.298;2023-04-30T12:06:11;101285.84;;;19.84;60.52
24422;BME280;12600;53.326;-6.298;2023-04-30T12:09:03;101287.09;;;19.43;63.71
24422;BME280;12600;53.326;-6.298;2023-04-30T12:11:53;101287.75;;;18.84;65.29
24422;BME280;12600;53.326;-6.298;2023-04-30T12:14:43;101288.09;;;18.58;64.71
24422;BME280;12600;53.326;-6.298;2023-04-30T12:17:33;101292.72;;;18.41;64.78
24422;BME280;12600;53.326;-6.298;2023-04-30T12:20:26;101265.66;;;18.23;65.56
24422;BME280;12600;53.326;-6.298;2023-04-30T12:23:17;101264.16;;;18.13;65.09
24422;BME280;12600;53.326;-6.298;2023-04-30T12:26:06;101270.84;;;18.24;66.44
24422;BME280;12600;53.326;-6.298;2023-04-30T12:28:56;101266.34;;;18.32;66.27
24422;BME280;12600;53.326;-6.298;2023-04-30T12:31:48;101264.84;;;18.34;65.28
24422;BME280;12600;53.326;-6.298;2023-04-30T12:34:39;101275.91;;;18.47;64.63
24422;BME280;12600;53.326;-6.298;2023-04-30T12:37:29;101273.69;;;18.77;66.87
24422;BME280;12600;53.326;-6.298;2023-04-30T12:40:24;101253.22;;;19.49;67.15
24422;BME280;12600;53.326;-6.298;2023-04-30T12:43:16;101253.31;;;20.63;66.88
24422;BME280;12600;53.326;-6.298;2023-04-30T12:46:05;101253.59;;;21.55;65.03
24422;BME280;12600;53.326;-6.298;2023-04-30T12:48:55;101248.09;;;22.54;64.60
24422;BME280;12600;53.326;-6.298;2023-04-30T12:51:46;101250.66;;;23.30;63.24
24422;BME280;12600;53.326;-6.298;2023-04-30T12:54:38;101239.28;;;23.45;60.04
24422;BME280;12600;53.326;-6.298;2023-04-30T12:57:27;101241.53;;;23.33;56.56
24422;BME280;12600;53.326;-6.298;2023-04-30T13:00:17;101236.06;;;22.76;52.98
24422;BME280;12600;53.326;-6.298;2023-04-30T13:03:06;101247.50;;;22.41;53.26
24422;BME280;12600;53.326;-6.298;2023-04-30T13:05:56;101243.75;;;22.56;52.07
24422;BME280;12600;53.326;-6.298;2023-04-30T13:08:49;101260.66;;;22.97;51.18
24422;BME280;12600;53.326;-6.298;2023-04-30T13:11:47;101252.34;;;23.34;49.20
24422;BME280;12600;53.326;-6.298;2023-04-30T13:14:37;101252.97;;;23.98;49.27
24422;BME280;12600;53.326;-6.298;2023-04-30T13:17:26;101248.47;;;24.35;46.37
24422;BME280;12600;53.326;-6.298;2023-04-30T13:20:16;101246.66;;;24.64;44.84
24422;BME280;12600;53.326;-6.298;2023-04-30T13:23:06;101253.41;;;24.55;42.45
24422;BME280;12600;53.326;-6.298;2023-04-30T13:25:55;101246.59;;;24.49;44.03
24422;BME280;12600;53.326;-6.298;2023-04-30T13:28:46;101253.78;;;23.58;44.76
24422;BME280;12600;53.326;-6.298;2023-04-30T13:31:35;101258.56;;;22.91;45.90
24422;BME280;12600;53.326;-6.298;2023-04-30T13:34:25;101254.53;;;22.31;46.68
24422;BME280;12600;53.326;-6.298;2023-04-30T13:37:14;101245.91;;;21.91;47.25
24422;BME280;12600;53.326;-6.298;2023-04-30T13:40:05;101231.34;;;22.01;47.41
24422;BME280;12600;53.326;-6.298;2023-04-30T13:42:55;101234.84;;;22.74;47.10
24422;BME280;12600;53.326;-6.298;2023-04-30T13:45:46;101235.78;;;23.56;46.33
24422;BME280;12600;53.326;-6.298;2023-04-30T13:48:35;101239.31;;;24.34;45.00
24422;BME280;12600;53.326;-6.298;2023-04-30T13:51:24;101254.91;;;24.39;41.81
24422;BME280;12600;53.326;-6.298;2023-04-30T13:54:14;101254.13;;;24.42;42.83
24422;BME280;12600;53.326;-6.298;2023-04-30T13:57:04;101248.22;;;24.61;43.49
24422;BME280;12600;53.326;-6.298;2023-04-30T13:59:54;101253.22;;;25.00;44.42
24422;BME280;12600;53.326;-6.298;2023-04-30T14:02:45;101238.91;;;25.08;43.93
24422;BME280;12600;53.326;-6.298;2023-04-30T14:05:35;101244.31;;;24.76;43.77
24422;BME280;12600;53.326;-6.298;2023-04-30T14:08:25;101236.03;;;24.25;44.30
24422;BME280;12600;53.326;-6.298;2023-04-30T14:11:15;101239.72;;;23.88;45.68
24422;BME280;12600;53.326;-6.298;2023-04-30T14:14:04;101252.66;;;23.29;46.21
24422;BME280;12600;53.326;-6.298;2023-04-30T14:16:54;101243.03;;;22.89;47.41
24422;BME280;12600;53.326;-6.298;2023-04-30T14:19:45;101246.00;;;22.47;47.43
24422;BME280;12600;53.326;-6.298;2023-04-30T14:22:34;101232.28;;;22.35;48.38
24422;BME280;12600;53.326;-6.298;2023-04-30T14:25:25;101247.66;;;22.02;48.19
24422;BME280;12600;53.326;-6.298;2023-04-30T14:28:14;101243.41;;;21.86;48.00
24422;BME280;12600;53.326;-6.298;2023-04-30T14:31:04;101252.69;;;21.70;48.36
24422;BME280;12600;53.326;-6.298;2023-04-30T14:33:53;101242.09;;;22.02;47.56
24422;BME280;12600;53.326;-6.298;2023-04-30T14:36:45;101229.94;;;22.37;44.81
24422;BME280;12600;53.326;-6.298;2023-04-30T14:39:34;101244.09;;;22.81;43.49
24422;BME280;12600;53.326;-6.298;2023-04-30T14:42:24;101244.16;;;22.85;42.64